Time;durP1;ratioP1;P1;durP2;ratioP2;P2;SDS_P1;SDS_P2;PMS_P1;PMS_P2;Temp;Humidity;BMP_temperature;BMP_pressure;BME280_temperature;BME280_humidity;BME280_pressure;Samples;Min_cycle;Max_cycle;Signal;HPM_P1;HPM_P2
2022/02/11 00:02:13;;;;;;;0.10;0.10;;;;;;;;;;4933361;28;20302;-69
2022/02/11 00:05:01;;;;;;;3.03;0.97;;;;;;;;;;4934479;28;20757;-70
2022/02/11 00:07:29;;;;;;;0.20;0.20;;;;;;;;;;4935018;28;20222;-72
2022/02/11 00:09:58;;;;;;;0.50;0.50;;;;;;;;;;4934208;28;20213;-70
2022/02/11 00:12:27;;;;;;;0.93;0.30;;;;;;;;;;4934071;28;20206;-72
2022/02/11 00:15:03;;;;;;;0.03;0.03;;;;;;;;;;4936209;28;20198;-68
2022/02/11 00:17:31;;;;;;;0.00;0.00;;;;;;;;;;4936230;28;20231;-69
2022/02/11 00:19:59;;;;;;;1.37;0.83;;;;;;;;;;4937378;28;20203;-68
2022/02/11 00:22:27;;;;;;;0.93;0.20;;;;;;;;;;4938682;28;20361;-68
2022/02/11 00:24:54;;;;;;;0.00;0.00;;;;;;;;;;4939632;28;20210;-71
2022/02/11 00:27:57;;;;;;;13.93;1.03;;;;;;;;;;4939443;28;20230;-69
2022/02/11 00:33:24;;;;;;;0.90;0.77;;;;;;;;;;4939206;28;20239;-70
2022/02/11 00:35:57;;;;;;;0.10;0.10;;;;;;;;;;4939792;28;20267;-69
2022/02/11 00:38:34;;;;;;;2.50;0.30;;;;;;;;;;4940642;28;20227;-68
2022/02/11 00:41:49;;;;;;;0.83;0.10;;;;;;;;;;4939530;28;20314;-70
2022/02/11 00:47:16;;;;;;;0.00;0.00;;;;;;;;;;4938732;28;20210;-70
2022/02/11 01:03:45;;;;;;;0.40;0.33;;;;;;;;;;4938573;28;20330;-70
2022/02/11 01:06:13;;;;;;;3.10;0.20;;;;;;;;;;4937648;28;20338;-69
2022/02/11 01:08:41;;;;;;;0.23;0.10;;;;;;;;;;4938292;28;20843;-72
2022/02/11 01:11:15;;;;;;;0.10;0.10;;;;;;;;;;4937887;28;20337;-71
2022/02/11 01:13:42;;;;;;;0.00;0.00;;;;;;;;;;4936782;28;20210;-70
2022/02/11 01:16:17;;;;;;;0.00;0.00;;;;;;;;;;4941667;28;20210;-70
2022/02/11 01:18:50;;;;;;;1.50;0.47;;;;;;;;;;4937910;28;20199;-69
2022/02/11 01:21:26;;;;;;;0.30;0.30;;;;;;;;;;4936736;28;20226;-71
2022/02/11 01:24:01;;;;;;;0.00;0.00;;;;;;;;;;4939003;28;21000;-69
2022/02/11 01:26:40;;;;;;;0.10;0.10;;;;;;;;;;4937224;28;20206;-68
2022/02/11 01:29:36;;;;;;;0.13;0.07;;;;;;;;;;4936985;28;20398;-69
2022/02/11 01:32:21;;;;;;;0.10;0.10;;;;;;;;;;4936820;28;20378;-69
2022/02/11 01:34:59;;;;;;;0.77;0.30;;;;;;;;;;4937804;28;20276;-72
2022/02/11 01:37:35;;;;;;;0.07;0.07;;;;;;;;;;4937333;28;20319;-68
2022/02/11 01:49:09;;;;;;;0.00;0.00;;;;;;;;;;4896781;29;20215;-69
2022/02/11 01:51:43;;;;;;;1.50;1.03;;;;;;;;;;4935130;28;21618;-69
2022/02/11 01:54:17;;;;;;;0.93;0.30;;;;;;;;;;4936979;28;21591;-72
2022/02/11 01:56:57;;;;;;;4.80;3.33;;;;;;;;;;4936658;28;20219;-70
2022/02/11 02:00:05;;;;;;;0.00;0.00;;;;;;;;;;4936907;28;20206;-68
2022/02/11 02:03:07;;;;;;;0.57;0.57;;;;;;;;;;4938539;28;20211;-68
2022/02/11 02:05:59;;;;;;;1.23;0.53;;;;;;;;;;4937445;28;20239;-69
2022/02/11 02:09:03;;;;;;;2.30;2.20;;;;;;;;;;4939407;28;20207;-71
2022/02/11 02:11:59;;;;;;;1.13;0.10;;;;;;;;;;4936872;28;20210;-70
2022/02/11 02:23:01;;;;;;;0.00;0.00;;;;;;;;;;4936668;28;20268;-71
2022/02/11 02:25:35;;;;;;;0.00;0.00;;;;;;;;;;4936159;28;20226;-72
2022/02/11 02:33:54;;;;;;;1.03;0.30;;;;;;;;;;4935177;28;20203;-68
2022/02/11 02:50:19;;;;;;;0.00;0.00;;;;;;;;;;4934877;28;20629;-69
2022/02/11 02:58:33;;;;;;;0.00;0.00;;;;;;;;;;4868190;29;20293;-67
2022/02/11 03:01:35;;;;;;;0.20;0.20;;;;;;;;;;4925115;28;20373;-70
2022/02/11 03:15:40;;;;;;;1.60;0.63;;;;;;;;;;4944436;28;20694;-71
2022/02/11 03:54:28;;;;;;;0.17;0.17;;;;;;;;;;4935296;28;20211;-76
2022/02/11 09:06:46;;;;;;;6.87;0.40;;;;;;;;;;5072501;27;21466;-69
2022/02/11 09:09:15;;;;;;;0.07;0.07;;;;;;;;;;5069432;28;20202;-70
2022/02/11 09:11:43;;;;;;;0.00;0.00;;;;;;;;;;5063750;28;20209;-69
2022/02/11 09:14:10;;;;;;;0.43;0.43;;;;;;;;;;5066363;28;20577;-70
2022/02/11 09:16:38;;;;;;;0.00;0.00;;;;;;;;;;5067415;28;20241;-69
2022/02/11 09:19:09;;;;;;;0.00;0.00;;;;;;;;;;5065261;28;20216;-69
2022/02/11 09:21:36;;;;;;;0.70;0.37;;;;;;;;;;5067091;28;20263;-69
2022/02/11 09:24:05;;;;;;;0.00;0.00;;;;;;;;;;5068338;28;20199;-69
2022/02/11 09:26:34;;;;;;;0.30;0.20;;;;;;;;;;5068145;28;20195;-67
2022/02/11 09:29:02;;;;;;;0.00;0.00;;;;;;;;;;5071610;28;20594;-69
2022/02/11 09:31:29;;;;;;;0.00;0.00;;;;;;;;;;5068431;28;20205;-70
2022/02/11 09:34:03;;;;;;;0.00;0.00;;;;;;;;;;5071312;28;20191;-67
2022/02/11 09:36:31;;;;;;;0.47;0.20;;;;;;;;;;5076573;28;20244;-71
2022/02/11 09:38:58;;;;;;;0.10;0.10;;;;;;;;;;5067592;28;20622;-67
2022/02/11 09:41:27;;;;;;;0.30;0.30;;;;;;;;;;5068167;28;20682;-69
2022/02/11 09:43:55;;;;;;;0.43;0.00;;;;;;;;;;5067997;28;20206;-69
2022/02/11 09:46:23;;;;;;;2.90;0.43;;;;;;;;;;5068654;28;20199;-69
2022/02/11 09:48:50;;;;;;;0.00;0.00;;;;;;;;;;5068001;28;20207;-68
2022/02/11 09:51:25;;;;;;;0.00;0.00;;;;;;;;;;5067643;28;20199;-69
2022/02/11 09:53:53;;;;;;;0.00;0.00;;;;;;;;;;5078047;28;20198;-69
2022/02/11 09:56:21;;;;;;;0.00;0.00;;;;;;;;;;5062381;28;20234;-69
2022/02/11 09:58:51;;;;;;;0.00;0.00;;;;;;;;;;5067733;28;20214;-69
2022/02/11 10:01:21;;;;;;;1.13;0.37;;;;;;;;;;5064658;28;20207;-73
2022/02/11 10:04:09;;;;;;;0.00;0.00;;;;;;;;;;5079030;28;20497;-69
2022/02/11 10:06:36;;;;;;;0.00;0.00;;;;;;;;;;5072483;28;20272;-68
2022/02/11 10:09:04;;;;;;;0.00;0.00;;;;;;;;;;5078203;28;20210;-69
2022/02/11 10:11:32;;;;;;;4.53;0.10;;;;;;;;;;5067426;28;20227;-68
2022/02/11 10:14:15;;;;;;;0.00;0.00;;;;;;;;;;5086317;28;20198;-69
2022/02/11 10:16:52;;;;;;;0.37;0.37;;;;;;;;;;5069384;28;20195;-68
2022/02/11 10:19:35;;;;;;;0.00;0.00;;;;;;;;;;5073027;28;20567;-69
2022/02/11 10:22:09;;;;;;;0.00;0.00;;;;;;;;;;5070823;28;20694;-72
2022/02/11 10:24:37;;;;;;;0.10;0.10;;;;;;;;;;5053245;28;20248;-68
2022/02/11 10:27:16;;;;;;;1.17;0.27;;;;;;;;;;5053818;28;20660;-69
2022/02/11 10:29:44;;;;;;;0.40;0.10;;;;;;;;;;5063257;28;20229;-69
2022/02/11 10:32:12;;;;;;;0.93;0.63;;;;;;;;;;5072164;28;20207;-69
2022/02/11 10:34:40;;;;;;;0.00;0.00;;;;;;;;;;5059169;28;20190;-69
2022/02/11 10:37:11;;;;;;;0.13;0.13;;;;;;;;;;5062826;28;20199;-68
2022/02/11 10:39:39;;;;;;;3.60;1.27;;;;;;;;;;5073639;28;20199;-68
2022/02/11 10:42:08;;;;;;;0.00;0.00;;;;;;;;;;5073486;28;20245;-69
2022/02/11 10:44:37;;;;;;;0.00;0.00;;;;;;;;;;5071898;28;20203;-68
2022/02/11 10:47:07;;;;;;;0.00;0.00;;;;;;;;;;5051777;28;20223;-69
2022/02/11 10:49:37;;;;;;;0.00;0.00;;;;;;;;;;5055204;28;20215;-68
2022/02/11 10:52:11;;;;;;;0.10;0.10;;;;;;;;;;5058037;28;20199;-70
2022/02/11 10:54:39;;;;;;;1.80;0.87;;;;;;;;;;5061711;28;20199;-69
2022/02/11 10:57:09;;;;;;;0.00;0.00;;;;;;;;;;5057816;28;20203;-68
2022/02/11 10:59:37;;;;;;;0.00;0.00;;;;;;;;;;5053532;28;20200;-68
2022/02/11 11:02:20;;;;;;;;;;;;;;;;;;;;;
2022/02/11 11:04:50;;;;;;;0.00;0.00;;;;;;;;;;5063555;28;20235;-67
2022/02/11 11:07:21;;;;;;;0.00;0.00;;;;;;;;;;5069411;28;20278;-67
2022/02/11 11:09:49;;;;;;;1.37;1.27;;;;;;;;;;5079226;28;20271;-67
2022/02/11 11:12:18;;;;;;;0.00;0.00;;;;;;;;;;5053449;28;20326;-69
2022/02/11 11:14:46;;;;;;;0.00;0.00;;;;;;;;;;5053519;28;20222;-69
2022/02/11 11:17:14;;;;;;;0.00;0.00;;;;;;;;;;5051549;28;20203;-70
2022/02/11 11:19:41;;;;;;;0.00;0.00;;;;;;;;;;5078353;28;20207;-68
2022/02/11 11:22:15;;;;;;;0.10;0.00;;;;;;;;;;5071539;28;20211;-72
2022/02/11 11:24:48;;;;;;;0.00;0.00;;;;;;;;;;5062670;28;20674;-69
2022/02/11 11:27:30;;;;;;;0.00;0.00;;;;;;;;;;5070211;28;20230;-70
2022/02/11 11:30:20;;;;;;;0.20;0.10;;;;;;;;;;5051797;28;20660;-69
2022/02/11 11:33:03;;;;;;;0.00;0.00;;;;;;;;;;5058105;28;20211;-69
2022/02/11 11:35:30;;;;;;;0.33;0.33;;;;;;;;;;5061899;28;20201;-69
2022/02/11 11:38:12;;;;;;;0.43;0.43;;;;;;;;;;5069236;28;20205;-69
2022/02/11 11:40:40;;;;;;;0.10;0.10;;;;;;;;;;5068233;28;20684;-68
2022/02/11 11:43:13;;;;;;;0.20;0.20;;;;;;;;;;5053464;28;20678;-68
2022/02/11 11:45:43;;;;;;;0.10;0.10;;;;;;;;;;5052785;28;20257;-69
2022/02/11 11:48:14;;;;;;;0.00;0.00;;;;;;;;;;5073834;28;20195;-69
2022/02/11 11:50:41;;;;;;;0.33;0.33;;;;;;;;;;5056529;28;20211;-69
2022/02/11 11:53:25;;;;;;;0.07;0.07;;;;;;;;;;5064753;28;20202;-71
2022/02/11 11:55:54;;;;;;;0.00;0.00;;;;;;;;;;5051886;28;20242;-68
2022/02/11 11:58:34;;;;;;;0.00;0.00;;;;;;;;;;5051540;28;20196;-69
2022/02/11 12:01:02;;;;;;;0.30;0.17;;;;;;;;;;5059339;28;20202;-69
2022/02/11 12:03:29;;;;;;;0.00;0.00;;;;;;;;;;5055424;28;20200;-70
2022/02/11 12:06:00;;;;;;;0.13;0.13;;;;;;;;;;5049727;28;20250;-68
2022/02/11 12:08:29;;;;;;;0.53;0.30;;;;;;;;;;5060052;28;20195;-67
2022/02/11 12:11:00;;;;;;;0.00;0.00;;;;;;;;;;5092074;28;20194;-67
2022/02/11 12:13:28;;;;;;;0.30;0.30;;;;;;;;;;5059538;28;20211;-68
2022/02/11 12:15:56;;;;;;;0.20;0.10;;;;;;;;;;5051510;28;20402;-69
2022/02/11 12:18:24;;;;;;;0.00;0.00;;;;;;;;;;5058505;28;20294;-68
2022/02/11 12:20:52;;;;;;;0.00;0.00;;;;;;;;;;5051916;28;20196;-69
2022/02/11 12:28:52;;;;;;;0.00;0.00;;;;;;;;;;5065080;28;20575;-70
2022/02/11 12:31:26;;;;;;;0.00;0.00;;;;;;;;;;5051517;28;20200;-69
2022/02/11 12:33:54;;;;;;;0.00;0.00;;;;;;;;;;5061461;28;20206;-69
2022/02/11 12:36:21;;;;;;;1.70;0.10;;;;;;;;;;5054806;28;20206;-68
2022/02/11 12:38:58;;;;;;;0.07;0.07;;;;;;;;;;5054306;28;20240;-67
2022/02/11 12:41:43;;;;;;;0.77;0.77;;;;;;;;;;5070875;28;20620;-67
2022/02/11 12:44:11;;;;;;;0.00;0.00;;;;;;;;;;5067639;28;20237;-70
2022/02/11 12:46:39;;;;;;;0.00;0.00;;;;;;;;;;5066224;28;20666;-69
2022/02/11 12:49:07;;;;;;;0.00;0.00;;;;;;;;;;5062120;28;20202;-67
2022/02/11 12:51:34;;;;;;;0.30;0.30;;;;;;;;;;5063260;28;20203;-67
2022/02/11 12:54:05;;;;;;;0.63;0.30;;;;;;;;;;5063809;28;20711;-67
2022/02/11 12:56:37;;;;;;;0.13;0.13;;;;;;;;;;5059389;28;20207;-67
2022/02/11 12:59:08;;;;;;;0.00;0.00;;;;;;;;;;5053929;28;20249;-69
2022/02/11 13:01:36;;;;;;;0.00;0.00;;;;;;;;;;5050665;28;20196;-67
2022/02/11 13:04:04;;;;;;;0.00;0.00;;;;;;;;;;5051132;28;20675;-68
2022/02/11 13:06:33;;;;;;;0.00;0.00;;;;;;;;;;5059546;28;20289;-68
2022/02/11 13:09:03;;;;;;;0.00;0.00;;;;;;;;;;5073984;28;20214;-67
2022/02/11 13:11:31;;;;;;;0.00;0.00;;;;;;;;;;5077749;28;20623;-69
2022/02/11 13:14:05;;;;;;;0.00;0.00;;;;;;;;;;5065718;28;20294;-68
2022/02/11 13:16:33;;;;;;;0.00;0.00;;;;;;;;;;5051131;28;20202;-67
2022/02/11 13:19:10;;;;;;;0.00;0.00;;;;;;;;;;5050405;28;20203;-69
2022/02/11 13:21:38;;;;;;;0.00;0.00;;;;;;;;;;5052888;28;20226;-69
2022/02/11 13:24:06;;;;;;;0.00;0.00;;;;;;;;;;5071167;28;20240;-69
2022/02/11 13:26:33;;;;;;;0.97;0.30;;;;;;;;;;5071110;28;20238;-69
2022/02/11 13:29:02;;;;;;;0.00;0.00;;;;;;;;;;5058104;28;20206;-69
2022/02/11 13:31:46;;;;;;;0.00;0.00;;;;;;;;;;5061032;28;20692;-69
2022/02/11 13:34:13;;;;;;;1.00;0.50;;;;;;;;;;5052554;28;20195;-69
2022/02/11 13:36:45;;;;;;;0.40;0.40;;;;;;;;;;5054618;28;20200;-69
2022/02/11 13:39:25;;;;;;;0.00;0.00;;;;;;;;;;5049996;28;20231;-70
2022/02/11 13:41:52;;;;;;;0.27;0.27;;;;;;;;;;5051981;28;20202;-69
2022/02/11 13:44:22;;;;;;;0.00;0.00;;;;;;;;;;5059721;28;20199;-69
2022/02/11 13:46:53;;;;;;;0.40;0.40;;;;;;;;;;5051055;28;20577;-70
2022/02/11 13:49:22;;;;;;;0.00;0.00;;;;;;;;;;5064418;28;20222;-69
2022/02/11 13:54:58;;;;;;;0.00;0.00;;;;;;;;;;5054577;28;20744;-69
2022/02/11 13:57:25;;;;;;;0.00;0.00;;;;;;;;;;5054317;28;20192;-71
2022/02/11 13:59:55;;;;;;;0.00;0.00;;;;;;;;;;5053597;28;20207;-70
2022/02/11 14:02:22;;;;;;;0.27;0.17;;;;;;;;;;5060706;28;20206;-69
2022/02/11 14:05:00;;;;;;;0.10;0.10;;;;;;;;;;5057513;28;20773;-71
2022/02/11 14:07:28;;;;;;;0.07;0.07;;;;;;;;;;5053634;28;20223;-70
2022/02/11 14:09:55;;;;;;;0.00;0.00;;;;;;;;;;5086512;28;20198;-67
2022/02/11 14:12:30;;;;;;;0.00;0.00;;;;;;;;;;5082177;28;20197;-70
2022/02/11 14:15:02;;;;;;;0.00;0.00;;;;;;;;;;5074411;28;20226;-69
2022/02/11 14:17:30;;;;;;;0.10;0.10;;;;;;;;;;5073543;28;20203;-71
2022/02/11 14:19:58;;;;;;;0.00;0.00;;;;;;;;;;5054033;28;20211;-70
2022/02/11 14:22:25;;;;;;;0.00;0.00;;;;;;;;;;5054483;28;20698;-70
2022/02/11 14:24:52;;;;;;;4.53;0.63;;;;;;;;;;5068982;28;20689;-70
2022/02/11 14:27:21;;;;;;;0.00;0.00;;;;;;;;;;5072905;28;20236;-70
2022/02/11 14:29:48;;;;;;;0.00;0.00;;;;;;;;;;5071704;28;20199;-69
2022/02/11 14:32:17;;;;;;;0.00;0.00;;;;;;;;;;5073860;28;20291;-69
2022/02/11 14:34:44;;;;;;;0.00;0.00;;;;;;;;;;5063537;28;20204;-70
2022/02/11 14:37:12;;;;;;;0.00;0.00;;;;;;;;;;5057322;28;20196;-70
2022/02/11 14:39:39;;;;;;;0.00;0.00;;;;;;;;;;5053003;28;20282;-69
2022/02/11 14:42:07;;;;;;;0.10;0.10;;;;;;;;;;5053091;28;20591;-69
2022/02/11 14:44:37;;;;;;;0.00;0.00;;;;;;;;;;5053068;28;20199;-69
2022/02/11 14:47:05;;;;;;;0.53;0.20;;;;;;;;;;5056059;28;20249;-70
2022/02/11 14:49:34;;;;;;;0.00;0.00;;;;;;;;;;5053535;28;20203;-69
2022/02/11 14:52:02;;;;;;;0.63;0.00;;;;;;;;;;5059664;28;20537;-69
2022/02/11 14:54:32;;;;;;;0.33;0.33;;;;;;;;;;5072434;28;20209;-70
2022/02/11 14:56:59;;;;;;;0.00;0.00;;;;;;;;;;5073553;28;20221;-69
2022/02/11 14:59:27;;;;;;;0.00;0.00;;;;;;;;;;5059708;28;20293;-69
2022/02/11 15:01:55;;;;;;;0.00;0.00;;;;;;;;;;5054791;28;20204;-70
2022/02/11 15:04:23;;;;;;;0.00;0.00;;;;;;;;;;5053312;28;20914;-69
2022/02/11 15:06:52;;;;;;;0.00;0.00;;;;;;;;;;5055589;28;20219;-70
2022/02/11 15:09:20;;;;;;;0.00;0.00;;;;;;;;;;5068817;28;20199;-69
2022/02/11 15:11:48;;;;;;;0.00;0.00;;;;;;;;;;5072951;28;20210;-69
2022/02/11 15:14:15;;;;;;;0.00;0.00;;;;;;;;;;5061825;28;20210;-69
2022/02/11 15:16:42;;;;;;;0.00;0.00;;;;;;;;;;5069272;28;20587;-69
2022/02/11 15:19:10;;;;;;;0.00;0.00;;;;;;;;;;5053007;28;20204;-69
2022/02/11 15:21:37;;;;;;;0.00;0.00;;;;;;;;;;5052886;28;20199;-69
2022/02/11 15:24:07;;;;;;;0.00;0.00;;;;;;;;;;5056164;28;20465;-69
2022/02/11 15:26:34;;;;;;;0.00;0.00;;;;;;;;;;5071366;28;20571;-69
2022/02/11 15:29:02;;;;;;;0.00;0.00;;;;;;;;;;5072848;28;20199;-69
2022/02/11 15:31:29;;;;;;;0.00;0.00;;;;;;;;;;5056391;28;20592;-70
2022/02/11 15:33:57;;;;;;;0.00;0.00;;;;;;;;;;5052798;28;20210;-69
2022/02/11 15:36:24;;;;;;;0.00;0.00;;;;;;;;;;5063424;28;20277;-69
2022/02/11 15:38:52;;;;;;;0.00;0.00;;;;;;;;;;5071982;28;20245;-70
2022/02/11 15:41:21;;;;;;;0.00;0.00;;;;;;;;;;5067817;28;20202;-69
2022/02/11 15:43:48;;;;;;;0.00;0.00;;;;;;;;;;5061158;28;20203;-69
2022/02/11 15:46:15;;;;;;;0.00;0.00;;;;;;;;;;5067656;28;20715;-69
2022/02/11 15:48:43;;;;;;;0.00;0.00;;;;;;;;;;5062075;28;20235;-69
2022/02/11 15:51:13;;;;;;;0.00;0.00;;;;;;;;;;5053001;28;20204;-69
2022/02/11 15:53:40;;;;;;;0.00;0.00;;;;;;;;;;5066433;28;20567;-69
2022/02/11 15:56:09;;;;;;;0.00;0.00;;;;;;;;;;5058853;28;20210;-69
2022/02/11 15:58:38;;;;;;;0.00;0.00;;;;;;;;;;5052000;28;20203;-69
2022/02/11 16:01:05;;;;;;;0.00;0.00;;;;;;;;;;5051983;28;20237;-69
2022/02/11 16:03:33;;;;;;;0.00;0.00;;;;;;;;;;5065398;28;20612;-69
2022/02/11 16:06:00;;;;;;;0.00;0.00;;;;;;;;;;5061225;28;20702;-68
2022/02/11 16:08:27;;;;;;;0.00;0.00;;;;;;;;;;5071427;28;20326;-69
2022/02/11 16:10:55;;;;;;;0.00;0.00;;;;;;;;;;5059236;28;20653;-69
2022/02/11 16:13:22;;;;;;;0.00;0.00;;;;;;;;;;5065068;28;20195;-69
2022/02/11 16:15:51;;;;;;;0.00;0.00;;;;;;;;;;5071206;28;20575;-70
2022/02/11 16:18:23;;;;;;;0.00;0.00;;;;;;;;;;5050530;28;20212;-69
2022/02/11 16:20:50;;;;;;;0.00;0.00;;;;;;;;;;5055076;28;20380;-68
2022/02/11 16:23:19;;;;;;;0.00;0.00;;;;;;;;;;5066722;28;20656;-69
2022/02/11 16:25:47;;;;;;;0.00;0.00;;;;;;;;;;5071454;28;20199;-68
2022/02/11 16:28:17;;;;;;;0.00;0.00;;;;;;;;;;5071887;28;20230;-69
2022/02/11 16:30:45;;;;;;;0.00;0.00;;;;;;;;;;5056743;28;20239;-68
2022/02/11 16:33:14;;;;;;;0.00;0.00;;;;;;;;;;5051578;28;20537;-69
2022/02/11 16:35:43;;;;;;;0.00;0.00;;;;;;;;;;5067980;28;20676;-68
2022/02/11 16:38:11;;;;;;;0.00;0.00;;;;;;;;;;5057664;28;20200;-68
2022/02/11 16:40:40;;;;;;;0.00;0.00;;;;;;;;;;5050404;28;20290;-68
2022/02/11 16:43:07;;;;;;;0.00;0.00;;;;;;;;;;5057211;28;20195;-68
2022/02/11 16:45:35;;;;;;;0.00;0.00;;;;;;;;;;5058644;28;20577;-68
2022/02/11 16:48:03;;;;;;;0.00;0.00;;;;;;;;;;5051516;28;20703;-69
2022/02/11 16:50:32;;;;;;;0.00;0.00;;;;;;;;;;5047215;28;20195;-68
2022/02/11 16:52:59;;;;;;;0.00;0.00;;;;;;;;;;5053781;28;20196;-68
2022/02/11 16:55:26;;;;;;;0.00;0.00;;;;;;;;;;5052801;28;20207;-66
2022/02/11 16:57:54;;;;;;;0.00;0.00;;;;;;;;;;5058245;28;20195;-66
2022/02/11 17:00:21;;;;;;;0.00;0.00;;;;;;;;;;5070945;28;20195;-65
2022/02/11 17:02:49;;;;;;;0.00;0.00;;;;;;;;;;5062644;28;20203;-67
2022/02/11 17:05:21;;;;;;;0.00;0.00;;;;;;;;;;5073307;28;20243;-66
2022/02/11 17:07:50;;;;;;;0.00;0.00;;;;;;;;;;5057073;28;20245;-70
2022/02/11 17:10:23;;;;;;;0.00;0.00;;;;;;;;;;5056575;28;20196;-70
2022/02/11 17:12:50;;;;;;;0.00;0.00;;;;;;;;;;5066209;28;20199;-68
2022/02/11 17:15:17;;;;;;;0.00;0.00;;;;;;;;;;5051013;28;20202;-67
2022/02/11 17:17:47;;;;;;;0.00;0.00;;;;;;;;;;5053218;28;20207;-72
2022/02/11 17:20:15;;;;;;;0.00;0.00;;;;;;;;;;5059011;28;20212;-67
2022/02/11 17:22:43;;;;;;;0.00;0.00;;;;;;;;;;5059087;28;20199;-67
2022/02/11 17:25:13;;;;;;;0.00;0.00;;;;;;;;;;5056963;28;20200;-67
2022/02/11 17:27:41;;;;;;;0.00;0.00;;;;;;;;;;5064563;28;20257;-72
2022/02/11 17:30:09;;;;;;;0.50;0.50;;;;;;;;;;5061104;28;20195;-67
2022/02/11 17:32:37;;;;;;;0.00;0.00;;;;;;;;;;5062844;28;20284;-68
2022/02/11 17:35:05;;;;;;;4.33;3.20;;;;;;;;;;5063933;28;20204;-68
2022/02/11 17:37:33;;;;;;;0.00;0.00;;;;;;;;;;5056394;28;20248;-68
2022/02/11 17:40:02;;;;;;;0.00;0.00;;;;;;;;;;5056909;28;20242;-66
2022/02/11 17:42:31;;;;;;;0.00;0.00;;;;;;;;;;5066657;28;20665;-68
2022/02/11 17:44:59;;;;;;;0.00;0.00;;;;;;;;;;5071904;28;20203;-67
2022/02/11 17:47:27;;;;;;;0.00;0.00;;;;;;;;;;5058994;28;20220;-67
2022/02/11 17:49:54;;;;;;;0.93;0.73;;;;;;;;;;5054695;28;20199;-67
2022/02/11 17:52:21;;;;;;;2.90;2.70;;;;;;;;;;5062043;28;20191;-68
2022/02/11 17:54:49;;;;;;;0.00;0.00;;;;;;;;;;5074330;28;20612;-69
2022/02/11 17:57:16;;;;;;;0.00;0.00;;;;;;;;;;5073189;28;20202;-68
2022/02/11 17:59:46;;;;;;;0.10;0.10;;;;;;;;;;5073833;28;20203;-68
2022/02/11 18:02:13;;;;;;;0.00;0.00;;;;;;;;;;5070382;28;20230;-67
2022/02/11 18:04:40;;;;;;;0.00;0.00;;;;;;;;;;5054850;28;20239;-69
2022/02/11 18:07:08;;;;;;;0.00;0.00;;;;;;;;;;5054830;28;20196;-66
2022/02/11 18:09:35;;;;;;;0.00;0.00;;;;;;;;;;5055037;28;20227;-68
2022/02/11 18:12:05;;;;;;;0.00;0.00;;;;;;;;;;5054262;28;20298;-70
2022/02/11 18:14:32;;;;;;;0.00;0.00;;;;;;;;;;5060447;28;20253;-74
2022/02/11 18:17:01;;;;;;;0.00;0.00;;;;;;;;;;5052782;28;20532;-67
2022/02/11 18:19:29;;;;;;;0.00;0.00;;;;;;;;;;5054343;28;20548;-69
2022/02/11 18:21:56;;;;;;;0.00;0.00;;;;;;;;;;5052392;28;20205;-69
2022/02/11 18:24:24;;;;;;;0.00;0.00;;;;;;;;;;5049938;28;20562;-69
2022/02/11 18:26:51;;;;;;;0.00;0.00;;;;;;;;;;5052994;28;20680;-70
2022/02/11 18:29:20;;;;;;;0.00;0.00;;;;;;;;;;5052933;28;20227;-68
2022/02/11 18:31:48;;;;;;;2.63;2.53;;;;;;;;;;5056740;28;20203;-68
2022/02/11 18:34:17;;;;;;;0.00;0.00;;;;;;;;;;5055585;28;20217;-69
2022/02/11 18:36:44;;;;;;;0.00;0.00;;;;;;;;;;5052654;28;20196;-67
2022/02/11 18:39:12;;;;;;;0.00;0.00;;;;;;;;;;5052336;28;20203;-68
2022/02/11 18:41:39;;;;;;;0.00;0.00;;;;;;;;;;5053847;28;21022;-67
2022/02/11 18:44:06;;;;;;;0.00;0.00;;;;;;;;;;5055621;28;20237;-71
2022/02/11 18:46:34;;;;;;;0.00;0.00;;;;;;;;;;5059445;28;20218;-68
2022/02/11 18:49:05;;;;;;;0.00;0.00;;;;;;;;;;5055631;28;20235;-69
2022/02/11 18:51:34;;;;;;;0.00;0.00;;;;;;;;;;5055758;28;20625;-68
2022/02/11 18:54:02;;;;;;;0.33;0.33;;;;;;;;;;5050506;28;20199;-68
2022/02/11 18:56:29;;;;;;;0.10;0.10;;;;;;;;;;5051256;28;20203;-70
2022/02/11 19:00:25;;;;;;;0.00;0.00;;;;;;;;;;5051563;28;20579;-69
2022/02/11 19:01:44;;;;;;;0.00;0.00;;;;;;;;;;5054999;28;20278;-73
2022/02/11 19:04:12;;;;;;;0.00;0.00;;;;;;;;;;5058376;28;20191;-68
2022/02/11 19:06:41;;;;;;;0.00;0.00;;;;;;;;;;5053721;28;20797;-67
2022/02/11 19:09:08;;;;;;;0.00;0.00;;;;;;;;;;5059039;28;20624;-67
2022/02/11 19:11:40;;;;;;;0.00;0.00;;;;;;;;;;5053103;28;20203;-69
2022/02/11 19:14:12;;;;;;;0.00;0.00;;;;;;;;;;5057373;28;20234;-67
2022/02/11 19:16:39;;;;;;;0.00;0.00;;;;;;;;;;5050396;28;20204;-69
2022/02/11 19:19:07;;;;;;;0.00;0.00;;;;;;;;;;5053085;28;20204;-67
2022/02/11 19:21:35;;;;;;;0.00;0.00;;;;;;;;;;5058026;28;20221;-69
2022/02/11 19:24:04;;;;;;;0.00;0.00;;;;;;;;;;5050599;28;20660;-68
2022/02/11 19:26:31;;;;;;;0.00;0.00;;;;;;;;;;5054790;28;20195;-68
2022/02/11 19:28:58;;;;;;;0.00;0.00;;;;;;;;;;5058882;28;20235;-68
2022/02/11 19:31:26;;;;;;;0.00;0.00;;;;;;;;;;5055664;28;20200;-68
2022/02/11 19:33:53;;;;;;;0.00;0.00;;;;;;;;;;5053737;28;20743;-69
2022/02/11 19:36:21;;;;;;;0.00;0.00;;;;;;;;;;5050683;28;20206;-69
2022/02/11 19:38:48;;;;;;;0.00;0.00;;;;;;;;;;5052519;28;20203;-70
2022/02/11 19:41:17;;;;;;;0.10;0.10;;;;;;;;;;5053266;28;20199;-68
2022/02/11 19:43:44;;;;;;;0.00;0.00;;;;;;;;;;5051789;28;20199;-69
2022/02/11 19:46:12;;;;;;;0.23;0.23;;;;;;;;;;5052491;28;20282;-68
2022/02/11 19:48:41;;;;;;;0.00;0.00;;;;;;;;;;5055712;28;20293;-69
2022/02/11 19:51:09;;;;;;;0.00;0.00;;;;;;;;;;5050411;28;20204;-70
2022/02/11 19:53:37;;;;;;;0.00;0.00;;;;;;;;;;5053308;28;20206;-68
2022/02/11 19:56:05;;;;;;;0.00;0.00;;;;;;;;;;5053374;28;20201;-68
2022/02/11 19:58:34;;;;;;;0.00;0.00;;;;;;;;;;5056888;28;20200;-68
2022/02/11 20:01:02;;;;;;;0.00;0.00;;;;;;;;;;5054251;28;20553;-69
2022/02/11 20:03:31;;;;;;;0.20;0.20;;;;;;;;;;5053023;28;20676;-69
2022/02/11 20:05:59;;;;;;;0.00;0.00;;;;;;;;;;5056210;28;20223;-69
2022/02/11 20:08:26;;;;;;;0.00;0.00;;;;;;;;;;5055208;28;20237;-69
2022/02/11 20:10:53;;;;;;;0.00;0.00;;;;;;;;;;5051947;28;20199;-68
2022/02/11 20:13:21;;;;;;;1.60;1.60;;;;;;;;;;5052737;28;20196;-70
2022/02/11 20:15:50;;;;;;;0.00;0.00;;;;;;;;;;5053392;28;20202;-68
2022/02/11 20:18:17;;;;;;;0.10;0.10;;;;;;;;;;5055036;28;20199;-69
2022/02/11 20:20:45;;;;;;;1.97;0.70;;;;;;;;;;5051304;28;20207;-68
2022/02/11 20:23:13;;;;;;;0.00;0.00;;;;;;;;;;5055027;28;20211;-69
2022/02/11 20:25:41;;;;;;;0.00;0.00;;;;;;;;;;5057138;28;20199;-70
2022/02/11 20:28:08;;;;;;;0.00;0.00;;;;;;;;;;5048172;28;20215;-68
2022/02/11 20:30:35;;;;;;;0.10;0.10;;;;;;;;;;5052201;28;20199;-69
2022/02/11 20:33:06;;;;;;;0.40;0.40;;;;;;;;;;5055749;28;20206;-68
2022/02/11 20:35:39;;;;;;;0.00;0.00;;;;;;;;;;5053135;28;20199;-68
2022/02/11 20:38:07;;;;;;;0.00;0.00;;;;;;;;;;5053764;28;20205;-68
2022/02/11 20:40:34;;;;;;;0.00;0.00;;;;;;;;;;5057196;28;20199;-69
2022/02/11 20:43:02;;;;;;;0.40;0.40;;;;;;;;;;5054071;28;20217;-67
2022/02/11 20:45:29;;;;;;;0.07;0.07;;;;;;;;;;5050607;28;20211;-69
2022/02/11 20:47:57;;;;;;;0.00;0.00;;;;;;;;;;5048629;28;20671;-67
2022/02/11 20:50:36;;;;;;;0.20;0.20;;;;;;;;;;5051283;28;20208;-68
2022/02/11 20:53:05;;;;;;;0.00;0.00;;;;;;;;;;5051115;28;20195;-67
2022/02/11 20:55:33;;;;;;;0.00;0.00;;;;;;;;;;5045770;28;20200;-67
2022/02/11 20:58:00;;;;;;;1.83;0.40;;;;;;;;;;5050516;28;20572;-67
2022/02/11 21:00:27;;;;;;;0.00;0.00;;;;;;;;;;5051784;28;20653;-67
2022/02/11 21:02:55;;;;;;;0.83;0.83;;;;;;;;;;5052671;28;20218;-67
2022/02/11 21:05:23;;;;;;;0.23;0.23;;;;;;;;;;5055266;28;20784;-67
2022/02/11 21:07:52;;;;;;;0.20;0.20;;;;;;;;;;5050040;28;20194;-68
2022/02/11 21:10:20;;;;;;;0.00;0.00;;;;;;;;;;5051154;28;20227;-68
2022/02/11 21:12:48;;;;;;;0.10;0.10;;;;;;;;;;5052298;28;20207;-68
2022/02/11 21:15:16;;;;;;;0.00;0.00;;;;;;;;;;5055705;28;20191;-68
2022/02/11 21:17:44;;;;;;;0.00;0.00;;;;;;;;;;5051269;28;20200;-68
2022/02/11 21:20:12;;;;;;;0.00;0.00;;;;;;;;;;5050774;28;20279;-69
2022/02/11 21:22:39;;;;;;;0.00;0.00;;;;;;;;;;5047935;28;20214;-68
2022/02/11 21:25:11;;;;;;;0.00;0.00;;;;;;;;;;5051598;28;20574;-67
2022/02/11 21:27:39;;;;;;;0.00;0.00;;;;;;;;;;5053229;28;20200;-68
2022/02/11 21:30:09;;;;;;;0.00;0.00;;;;;;;;;;5054953;28;20231;-68
2022/02/11 21:32:36;;;;;;;0.00;0.00;;;;;;;;;;5054112;28;20761;-67
2022/02/11 21:35:04;;;;;;;0.00;0.00;;;;;;;;;;5051843;28;20610;-70
2022/02/11 21:37:31;;;;;;;3.47;0.40;;;;;;;;;;5047855;28;20687;-69
2022/02/11 21:39:59;;;;;;;0.77;0.77;;;;;;;;;;5046080;28;20211;-69
2022/02/11 21:42:28;;;;;;;0.23;0.23;;;;;;;;;;5045553;28;20210;-67
2022/02/11 21:44:57;;;;;;;0.00;0.00;;;;;;;;;;5052648;28;20220;-68
2022/02/11 21:47:25;;;;;;;0.67;0.67;;;;;;;;;;5046026;28;20222;-68
2022/02/11 21:49:53;;;;;;;0.00;0.00;;;;;;;;;;5045753;28;20221;-67
2022/02/11 21:52:21;;;;;;;5.10;4.90;;;;;;;;;;5049184;28;20657;-68
2022/02/11 21:54:49;;;;;;;0.00;0.00;;;;;;;;;;5047968;28;20639;-67
2022/02/11 21:57:18;;;;;;;2.10;2.00;;;;;;;;;;5045990;28;20669;-68
2022/02/11 21:59:47;;;;;;;0.10;0.10;;;;;;;;;;5051387;28;20211;-69
2022/02/11 22:02:15;;;;;;;0.00;0.00;;;;;;;;;;5044556;28;20672;-69
2022/02/11 22:04:42;;;;;;;0.00;0.00;;;;;;;;;;5045895;28;20238;-69
2022/02/11 22:07:10;;;;;;;0.00;0.00;;;;;;;;;;5044824;28;20838;-68
2022/02/11 22:09:37;;;;;;;0.00;0.00;;;;;;;;;;5047949;28;20322;-68
2022/02/11 22:12:05;;;;;;;0.00;0.00;;;;;;;;;;5046247;28;20199;-68